Terminal Aerodrome Forecast
Issued by NWS Upton, NY

Current Version | Previous Version | Text Only | Print | Product List | Glossary On
Versions: 1 2 3 4 5 6 7 8 9 10 11 12 13 14 15 16 17 18 19 20 21 22 23 24 25 26 27 28 29 30 31 32 33 34 35
000
FTUS41 KOKX 231544 AAB
TAFBDR
TAF AMD
KBDR 231544Z 2316/2412 06023G34KT P6SM -DZ SCT014 OVC025
     FM231800 06028G42KT 6SM -DZ BR OVC010
      TEMPO 2319/2323 4SM -RA OVC010
     FM232300 06030G48KT 3SM RA BR OVC008
     FM240000 05028G43KT 2SM +RA BR OVC006
     FM240800 03022G33KT 3SM RA BR OVC006=

USA.gov is the U.S. government's official web portal to all federal, state and local government web resources and services.